createdAt,value
2022-12-18T00:00:58.685Z,100653.59
2022-12-18T00:03:29.900Z,100657.09
2022-12-18T00:06:00.868Z,100656.06
2022-12-18T00:08:31.800Z,100660.34
2022-12-18T00:11:10.809Z,100656.53
2022-12-18T00:13:41.990Z,100647.09
2022-12-18T00:16:18.223Z,100644.38
2022-12-18T00:18:50.691Z,100659.03
2022-12-18T00:21:22.605Z,100647.88
2022-12-18T00:23:54.090Z,100646.59
2022-12-18T00:26:43.197Z,100638.06
2022-12-18T00:29:16.699Z,100639.16
2022-12-18T00:31:47.851Z,100636.66
2022-12-18T00:34:18.689Z,100636.88
2022-12-18T00:36:51.403Z,100613.50
2022-12-18T00:39:22.361Z,100612.97
2022-12-18T00:42:11.452Z,100611.50
2022-12-18T00:44:42.439Z,100626.25
2022-12-18T00:47:13.201Z,100622.75
2022-12-18T00:49:44.172Z,100618.09
2022-12-18T00:52:15.092Z,100611.19
2022-12-18T00:54:45.991Z,100604.81
2022-12-18T00:57:17.578Z,100609.53
2022-12-18T00:59:48.739Z,100616.16
2022-12-18T01:02:20.269Z,100630.50
2022-12-18T01:04:54.729Z,100619.22
2022-12-18T01:07:25.813Z,100610.06
2022-12-18T01:09:56.573Z,100606.31
2022-12-18T01:12:27.467Z,100590.81
2022-12-18T01:14:58.398Z,100596.19
2022-12-18T01:17:29.414Z,100594.72
2022-12-18T01:20:00.711Z,100605.19
2022-12-18T01:22:33.286Z,100599.56
2022-12-18T01:25:04.144Z,100594.00
2022-12-18T01:27:37.421Z,100590.19
2022-12-18T01:30:09.603Z,100580.97
2022-12-18T01:32:40.518Z,100586.34
2022-12-18T01:35:13.253Z,100578.69
2022-12-18T01:38:11.586Z,100579.94
2022-12-18T01:40:42.691Z,100581.94
2022-12-18T01:43:15.150Z,100572.38
2022-12-18T01:45:46.121Z,100565.94
2022-12-18T01:48:16.830Z,100556.00
2022-12-18T01:50:47.661Z,100561.53
2022-12-18T01:53:26.213Z,100557.94
2022-12-18T01:55:59.145Z,100563.75
2022-12-18T01:58:49.983Z,100565.63
